Western Pride — WDD5447 — position and weather

sailwx.info

Track history (hours):
 
Tides and Currents Weather Stations Pressure Air Temp Water Temp Dewpoint Dewpoint Depression Visibility Wind Speed Wind Dir Waves Ship Positions

Western Pride

Owner: Western Pride, Balboa, CA. More information available from US FCC via Universal Licensing System and Coast Guard Vessel Documentation Center.

Last reported at 2017-Oct-22 21:42 UTC. Time now 2017-Nov-19 18:14 UTC.
Position N 33°33' W 117°57'.
Warning: this ship's position is 27 days out of date.

Length 23 m.

Type: Passenger vessel. MMSI: 367158550.

Date/timePositionNaut miles runAvg speedWind from/ knotsBaromVisibWave heightAir tempDewpointWater temp
2017-Oct-22 21:42N 33°33' W 117°57'0 0.6
2017-Oct-22 21:28N 33°33' W 117°57'1 2.1
2017-Oct-22 20:58N 33°33' W 117°56'6 2.2
2017-Oct-22 17:58N 33°34' W 118°04'4 6.2
2017-Oct-22 17:20N 33°34' W 118°08'0 0.1
2017-Oct-22 16:58N 33°34' W 118°08'0 0.0
2017-Oct-22 16:24N 33°34' W 118°08'0 0.0
2017-Oct-22 15:56N 33°34' W 118°08'0 0.0
2017-Oct-22 15:30N 33°34' W 118°08'4 7.7
2017-Oct-22 14:58N 33°33' W 118°03'3 6.2
2017-Oct-22 14:29N 33°32' W 117°60'3 7.0
2017-Oct-22 14:00N 33°33' W 117°56'4 7.1
2017-Oct-22 13:30N 33°36' W 117°53'  
2017-Oct-14 23:35N 33°35' W 118°01'110.3
2017-Oct-14 23:30N 33°34' W 118°02'510.1
2017-Oct-14 23:00N 33°34' W 118°08'0 0.1
2017-Oct-14 22:31N 33°34' W 118°08'0 0.0
2017-Oct-14 22:00N 33°34' W 118°08'0 0.0
2017-Oct-14 21:30N 33°34' W 118°08'3 5.2
2017-Oct-14 21:00N 33°34' W 118°05'  
Track history (hours):
 
Tides and Currents Weather Stations Pressure Air Temp Water Temp Dewpoint Dewpoint Depression Visibility Wind Speed Wind Dir Waves Ship Positions

Western Pride

Owner: Western Pride, Balboa, CA. More information available from US FCC via Universal Licensing System and Coast Guard Vessel Documentation Center.

Last reported at 2017-Oct-22 21:42 UTC. Time now 2017-Nov-19 18:14 UTC.
Position N 33°33' W 117°57'.
Warning: this ship's position is 27 days out of date.

Length 23 m.

Type: Passenger vessel. MMSI: 367158550.

Date/timePositionNaut miles runAvg speedWind from/ knotsBaromVisibWave heightAir tempDewpointWater temp
2017-Oct-22 21:42N 33°33' W 117°57'0 0.6
2017-Oct-22 21:28N 33°33' W 117°57'1 2.1
2017-Oct-22 20:58N 33°33' W 117°56'6 2.2
2017-Oct-22 17:58N 33°34' W 118°04'4 6.2
2017-Oct-22 17:20N 33°34' W 118°08'0 0.1
2017-Oct-22 16:58N 33°34' W 118°08'0 0.0
2017-Oct-22 16:24N 33°34' W 118°08'0 0.0
2017-Oct-22 15:56N 33°34' W 118°08'0 0.0
2017-Oct-22 15:30N 33°34' W 118°08'4 7.7
2017-Oct-22 14:58N 33°33' W 118°03'3 6.2
2017-Oct-22 14:29N 33°32' W 117°60'3 7.0
2017-Oct-22 14:00N 33°33' W 117°56'4 7.1
2017-Oct-22 13:30N 33°36' W 117°53'  
2017-Oct-14 23:35N 33°35' W 118°01'110.3
2017-Oct-14 23:30N 33°34' W 118°02'510.1
2017-Oct-14 23:00N 33°34' W 118°08'0 0.1
2017-Oct-14 22:31N 33°34' W 118°08'0 0.0
2017-Oct-14 22:00N 33°34' W 118°08'0 0.0
2017-Oct-14 21:30N 33°34' W 118°08'3 5.2
2017-Oct-14 21:00N 33°34' W 118°05'  

Dump ship's entire track history